Search for airport 
image banner adimage banner adimage banner ad
image banner ad

05CL - Pope Valley

Located in Pope Valley, United States

ICAO - 05CL, IATA -

Data provided by Airmate  

General information

Coordinates: N38°36'39" W122°23'29"
Elevation is 618 feet MSL.
Magnetic variation is 16° East
View others Airports in California

Operational data

Special qualification required
Current time UTC:
Current local time:
METAR: KSTS 292053Z 20009KT 10SM CLR 27/14 A2991 RMK AO2 SLP120 T02720139 56016
TAF: KSTS 291728Z 2918/3018 VRB05KT P6SM FEW200 FM292100 19008KT P6SM FEW180 FM300500 16005KT P6SM FEW150 FM301000 VRB03KT P6SM SCT008 FM301600 VRB02KT P6SM FEW150
View NOTAMs / SUP AIP / TFR affecting this airport [VIEW]
Communications frequencies: [VIEW]

Runways:

RWY identifierQFULength (ft)Width (ft)SurfaceLDA (ft)
10370060ASPH
28370060ASPH

Airport contact information

Address: Pope Valley United States

Satellite view of 05CL